Delta Mallard — WDF8814 — position and weather

sailwx.info

Track history (hours):
 
Tides and Currents Weather Stations Pressure Air Temp Water Temp Dewpoint Dewpoint Depression Visibility Wind Speed Wind Dir Waves Ship Positions

Delta Mallard

Owner: Crosby Marine Transportation, Golden Meadow, LA. More information available from US FCC via Universal Licensing System and Coast Guard Vessel Documentation Center.

Last reported at 2018-Jun-25 00:08 UTC. Time now 2018-Jun-25 11:28 UTC.
Position N 29°45' W 095°04'.

Length 16 m; draft 3.5 m.

Type: Towing. MMSI: 367498860.

Date/timePositionNaut miles runAvg speedWind from/ knotsBaromVisibWave heightAir tempDewpointWater temp
2018-Jun-25 00:08N 29°45' W 095°04'1 6.8
2018-Jun-25 00:00N 29°45' W 095°04'3 5.9
2018-Jun-24 23:30N 29°43' W 095°01'3 6.3
2018-Jun-24 23:00N 29°40' W 094°59'3 6.8
2018-Jun-24 22:30N 29°37' W 094°57'4 7.0
2018-Jun-24 22:00N 29°34' W 094°55'3 7.0
2018-Jun-24 21:30N 29°31' W 094°53'5 7.0
2018-Jun-24 20:46N 29°27' W 094°50'2 6.9
2018-Jun-24 20:28N 29°25' W 094°49'3 6.4
2018-Jun-24 20:00N 29°22' W 094°48'3 6.1
2018-Jun-24 19:28N 29°24' W 094°45'26 6.3
2018-Jun-24 15:17N 29°38' W 094°18'2 6.4
2018-Jun-24 14:57N 29°39' W 094°16'3 6.4
2018-Jun-24 14:30N 29°40' W 094°13'3 6.3
2018-Jun-24 14:00N 29°41' W 094°10'3 6.0
2018-Jun-24 13:30N 29°43' W 094°07'3 6.1
2018-Jun-24 13:00N 29°45' W 094°04'3 6.2
2018-Jun-24 12:30N 29°47' W 094°02'3 6.3
2018-Jun-24 12:00N 29°49' W 093°59'3 5.5
2018-Jun-24 11:30N 29°51' W 093°57'3 5.7
2018-Jun-24 11:00N 29°53' W 093°55'3 6.0
2018-Jun-24 10:30N 29°56' W 093°53'3 6.1
2018-Jun-24 10:01N 29°58' W 093°51'3 6.2
2018-Jun-24 09:30N 29°59' W 093°48'2 3.4
2018-Jun-24 09:01N 30°00' W 093°46'0 0.0
2018-Jun-24 08:30N 30°00' W 093°46'2 4.5
2018-Jun-24 08:00N 30°02' W 093°44'3 6.2
2018-Jun-24 07:30N 30°04' W 093°41'3 6.7
2018-Jun-24 07:00N 30°04' W 093°37'3 6.6
2018-Jun-24 06:30N 30°04' W 093°33'3 6.4
2018-Jun-24 05:59N 30°04' W 093°30'3 6.2
2018-Jun-24 05:30N 30°04' W 093°26'3 5.6
2018-Jun-24 05:00N 30°04' W 093°23'2 4.4
2018-Jun-24 04:30N 30°04' W 093°21'3 5.1
2018-Jun-24 04:00N 30°07' W 093°20'3 6.6
2018-Jun-24 03:30N 30°10' W 093°19'3 5.3
2018-Jun-24 03:00N 30°12' W 093°18'1 2.4
2018-Jun-24 02:30N 30°12' W 093°19'0 0.7
2018-Jun-24 01:59N 30°12' W 093°19'0 0.0
2018-Jun-24 01:29N 30°12' W 093°19'0 0.0
2018-Jun-24 00:59N 30°12' W 093°19'0 0.0
2018-Jun-24 00:29N 30°12' W 093°19'0 0.0
2018-Jun-23 23:59N 30°12' W 093°19'0 0.0
2018-Jun-23 23:26N 30°12' W 093°19'0 0.0
2018-Jun-23 22:59N 30°12' W 093°19'0 0.0
2018-Jun-23 22:29N 30°12' W 093°19'0 0.0
2018-Jun-23 21:59N 30°12' W 093°19'0 0.0
2018-Jun-23 21:29N 30°12' W 093°19'0 0.0
2018-Jun-23 20:53N 30°12' W 093°19'0 0.0
2018-Jun-23 20:26N 30°12' W 093°19'0 0.0
2018-Jun-23 19:59N 30°12' W 093°19'0 0.0
2018-Jun-23 19:23N 30°12' W 093°19'0 0.0
2018-Jun-23 18:50N 30°12' W 093°19'0 0.0
2018-Jun-23 18:29N 30°12' W 093°19'0 0.0
2018-Jun-23 17:59N 30°12' W 093°19'0 0.0
2018-Jun-23 17:22N 30°12' W 093°19'0 0.0
2018-Jun-23 16:59N 30°12' W 093°19'0 0.0
2018-Jun-23 16:28N 30°12' W 093°19'0 0.0
2018-Jun-23 15:59N 30°12' W 093°19'0 0.0
2018-Jun-23 15:26N 30°12' W 093°19'0 0.0
2018-Jun-23 14:59N 30°12' W 093°19'0 0.0
2018-Jun-23 14:29N 30°12' W 093°19'0 0.0
2018-Jun-23 13:59N 30°12' W 093°19'0 0.0
2018-Jun-23 13:29N 30°12' W 093°19'0 0.0
2018-Jun-23 12:59N 30°12' W 093°19'0 0.0
2018-Jun-23 12:29N 30°12' W 093°19'0 0.0
2018-Jun-23 11:59N 30°12' W 093°19'0 0.0
2018-Jun-23 11:29N 30°12' W 093°19'0 0.0
2018-Jun-23 10:59N 30°12' W 093°19'0 0.0
2018-Jun-23 10:29N 30°12' W 093°19'0 0.0
2018-Jun-23 09:59N 30°12' W 093°19'0 0.0
2018-Jun-23 09:29N 30°12' W 093°19'0 0.0
2018-Jun-23 08:59N 30°12' W 093°19'0 0.0
2018-Jun-23 08:29N 30°12' W 093°19'0 0.0
2018-Jun-23 07:59N 30°12' W 093°19'0 0.0
2018-Jun-23 07:29N 30°12' W 093°19'0 0.0
2018-Jun-23 06:59N 30°12' W 093°19'0 0.0
2018-Jun-23 06:26N 30°12' W 093°19'0 0.0
2018-Jun-23 05:58N 30°12' W 093°19'0 0.0
2018-Jun-23 05:26N 30°12' W 093°19'0 0.0
2018-Jun-23 04:59N 30°12' W 093°19'0 0.0
2018-Jun-23 04:29N 30°12' W 093°19'0 0.0
2018-Jun-23 03:59N 30°12' W 093°19'0 0.0
2018-Jun-23 03:28N 30°12' W 093°19'0 0.0
2018-Jun-23 02:56N 30°12' W 093°19'0 0.0
2018-Jun-23 02:26N 30°12' W 093°19'0 0.0
2018-Jun-23 01:58N 30°12' W 093°19'0 0.0
2018-Jun-23 01:29N 30°12' W 093°19'0 0.0
2018-Jun-23 00:58N 30°12' W 093°19'0 0.0
2018-Jun-23 00:25N 30°12' W 093°19'0 0.0
2018-Jun-22 23:58N 30°12' W 093°19'0 0.0
2018-Jun-22 23:28N 30°12' W 093°19'0 0.5
2018-Jun-22 23:00N 30°12' W 093°19'1 1.6
2018-Jun-22 22:31N 30°12' W 093°18'1 2.9
2018-Jun-22 22:01N 30°11' W 093°18'3 5.7
2018-Jun-22 21:30N 30°08' W 093°20'3 6.4
2018-Jun-22 21:01N 30°05' W 093°20'3 5.1
2018-Jun-22 20:30N 30°04' W 093°22'3 5.8
2018-Jun-22 20:01N 30°04' W 093°25'3 6.6
2018-Jun-22 19:31N 30°04' W 093°29'3 6.6
2018-Jun-22 19:00N 30°04' W 093°33'3 6.6
2018-Jun-22 18:31N 30°04' W 093°37'4 6.6
2018-Jun-22 17:51N 30°04' W 093°42'2 6.2
2018-Jun-22 17:31N 30°03' W 093°44'3 6.1
2018-Jun-22 17:01N 30°00' W 093°46'3 6.0
2018-Jun-22 16:30N 29°59' W 093°49'3 5.2
2018-Jun-22 16:00N 29°57' W 093°52'3 5.8
2018-Jun-22 15:30N 29°55' W 093°53'3 6.3
2018-Jun-22 15:01N 29°52' W 093°56'3 6.4
2018-Jun-22 14:31N 29°50' W 093°57'3 6.1
2018-Jun-22 14:01N 29°48' W 094°00'3 6.2
2018-Jun-22 13:30N 29°46' W 094°03'3 5.6
2018-Jun-22 13:00N 29°44' W 094°06'3 6.0
2018-Jun-22 12:30N 29°42' W 094°08'3 5.6
2018-Jun-22 12:00N 29°41' W 094°11'3 5.7
2018-Jun-22 11:30N 29°40' W 094°14'3 5.6
2018-Jun-22 11:00N 29°39' W 094°17'3 5.6
2018-Jun-22 10:30N 29°37' W 094°20'3 5.3
2018-Jun-22 09:52N 29°36' W 094°23'2 3.9
2018-Jun-22 09:24N 29°34' W 094°25'0 0.1
2018-Jun-22 08:59N 29°34' W 094°25'0 0.0
2018-Jun-22 08:26N 29°34' W 094°25'0 0.0
2018-Jun-22 08:00N 29°34' W 094°25'2 3.3
2018-Jun-22 07:29N 29°34' W 094°27'4 5.5
2018-Jun-22 06:49N 29°31' W 094°30'3 6.1
2018-Jun-22 06:18N 29°30' W 094°33'2 6.4
2018-Jun-22 05:57N 29°29' W 094°36'3 6.3
2018-Jun-22 05:30N 29°28' W 094°39'3 6.1
2018-Jun-22 04:58N 29°27' W 094°42'2 4.8
2018-Jun-22 04:29N 29°25' W 094°44'3 5.9
2018-Jun-22 03:58N 29°23' W 094°46'2 3.7
2018-Jun-22 03:30N 29°22' W 094°48'4 7.1
2018-Jun-22 03:00N 29°25' W 094°50'4 7.3
2018-Jun-22 02:30N 29°29' W 094°51'4 7.3
2018-Jun-22 02:01N 29°32' W 094°54'3 6.7
2018-Jun-22 01:30N 29°35' W 094°56'3 6.2
2018-Jun-22 01:00N 29°37' W 094°57'4 6.7
2018-Jun-22 00:29N 29°41' W 094°59'3 6.6
2018-Jun-21 23:57N 29°43' W 095°01'3 6.3
2018-Jun-21 23:26N 29°45' W 095°04'4 0.2
2018-Jun-21 00:13N 29°42' W 095°01'1 5.5
2018-Jun-21 00:00N 29°42' W 094°60'3 5.7
2018-Jun-20 23:30N 29°39' W 094°58'3 6.5
2018-Jun-20 23:00N 29°36' W 094°57'14 6.7
2018-Jun-20 20:53N 29°24' W 094°49'2 5.4
2018-Jun-20 20:28N 29°23' W 094°47'2 4.3
2018-Jun-20 19:53N 29°24' W 094°45'23 4.8
2018-Jun-20 15:03N 29°36' W 094°22'3 7.6
2018-Jun-20 14:39N 29°38' W 094°19'1 7.7
2018-Jun-20 14:30N 29°38' W 094°17'4 7.5
2018-Jun-20 14:01N 29°40' W 094°14'4 7.4
2018-Jun-20 13:31N 29°41' W 094°10'4 7.2
2018-Jun-20 13:01N 29°44' W 094°06'4 7.2
2018-Jun-20 12:31N 29°46' W 094°03'4 7.1
2018-Jun-20 12:01N 29°48' W 094°00'3 5.8
2018-Jun-20 11:31N 29°50' W 093°57'4 8.1
2018-Jun-20 11:00N 29°53' W 093°55'4 8.4
2018-Jun-20 10:31N 29°57' W 093°52'3 6.5
2018-Jun-20 10:01N 29°59' W 093°49'4 7.7
2018-Jun-20 09:31N 30°01' W 093°46'3 6.6
2018-Jun-20 09:01N 30°03' W 093°43'3 6.8
2018-Jun-20 08:30N 30°04' W 093°39'3 6.4
2018-Jun-20 07:58N 30°04' W 093°35'3 6.3
2018-Jun-20 07:29N 30°04' W 093°32'3 5.7
2018-Jun-20 07:00N 30°04' W 093°28'3 5.9
2018-Jun-20 06:31N 30°04' W 093°25'3 6.1
2018-Jun-20 06:00N 30°04' W 093°21'2 3.8
2018-Jun-20 05:30N 30°05' W 093°20'3 5.2
2018-Jun-20 05:00N 30°08' W 093°20'3 6.6
2018-Jun-20 04:31N 30°11' W 093°19'2 3.8
2018-Jun-20 04:01N 30°13' W 093°18'1 1.9
2018-Jun-20 03:31N 30°12' W 093°19'0 0.2
2018-Jun-20 03:00N 30°12' W 093°19'0 0.0
2018-Jun-20 02:30N 30°12' W 093°19'0 0.0
2018-Jun-20 02:00N 30°12' W 093°19'0 0.0
2018-Jun-20 01:27N 30°12' W 093°19'0 0.0
2018-Jun-20 01:00N 30°12' W 093°19'0 0.0
2018-Jun-20 00:27N 30°12' W 093°19'0 0.0
2018-Jun-20 00:00N 30°12' W 093°19'0 0.0
2018-Jun-19 23:30N 30°12' W 093°19'0 0.0
2018-Jun-19 23:00N 30°12' W 093°19'0 0.0
2018-Jun-19 22:30N 30°12' W 093°19'0 0.0
2018-Jun-19 22:00N 30°12' W 093°19'0 0.0
2018-Jun-19 21:30N 30°12' W 093°19'0 0.0
2018-Jun-19 21:00N 30°12' W 093°19'0 0.0
2018-Jun-19 20:30N 30°12' W 093°19'0 0.0
2018-Jun-19 20:00N 30°12' W 093°19'0 0.0
2018-Jun-19 19:27N 30°12' W 093°19'0 0.0
2018-Jun-19 19:00N 30°12' W 093°19'0 0.0
2018-Jun-19 18:27N 30°12' W 093°19'0 0.0
2018-Jun-19 18:00N 30°12' W 093°19'0 0.0
2018-Jun-19 17:30N 30°12' W 093°19'0 0.0
2018-Jun-19 17:00N 30°12' W 093°19'0 0.0
2018-Jun-19 16:30N 30°12' W 093°19'0 0.0
2018-Jun-19 16:00N 30°12' W 093°19'0 0.0
2018-Jun-19 15:30N 30°12' W 093°19'0 0.0
2018-Jun-19 15:00N 30°12' W 093°19'0 0.0
2018-Jun-19 14:30N 30°12' W 093°19'0 0.0
2018-Jun-19 14:00N 30°12' W 093°19'0 0.0
2018-Jun-19 13:30N 30°12' W 093°19'0 0.0
2018-Jun-19 13:00N 30°12' W 093°19'0 0.0
2018-Jun-19 12:24N 30°12' W 093°19'0 0.0
2018-Jun-19 12:00N 30°12' W 093°19'0 0.0
2018-Jun-19 11:30N 30°12' W 093°19'0 0.0
2018-Jun-19 10:57N 30°12' W 093°19'0 0.0
2018-Jun-19 10:27N 30°12' W 093°19'0 0.0
2018-Jun-19 10:00N 30°12' W 093°19'0 0.0
2018-Jun-19 09:30N 30°12' W 093°19'0 0.0
2018-Jun-19 09:00N 30°12' W 093°19'0 0.0
2018-Jun-19 08:30N 30°12' W 093°19'0 0.0
2018-Jun-19 07:54N 30°12' W 093°19'0 0.0
2018-Jun-19 07:24N 30°12' W 093°19'0 0.0
2018-Jun-19 06:57N 30°12' W 093°19'0 0.0
2018-Jun-19 06:27N 30°12' W 093°19'0 0.0
2018-Jun-19 06:00N 30°12' W 093°19'0 0.0
2018-Jun-19 05:30N 30°12' W 093°19'0 0.0
2018-Jun-19 05:00N 30°12' W 093°19'0 0.0
2018-Jun-19 04:27N 30°12' W 093°19'0 0.0
2018-Jun-19 04:00N 30°12' W 093°19'0 0.0
2018-Jun-19 03:30N 30°12' W 093°19'0 0.0
2018-Jun-19 03:00N 30°12' W 093°19'0 0.0
2018-Jun-19 02:27N 30°12' W 093°19'0 0.0
2018-Jun-19 02:00N 30°12' W 093°19'0 0.0
2018-Jun-19 01:30N 30°12' W 093°19'0 0.0
2018-Jun-19 01:00N 30°12' W 093°19'0 0.0
2018-Jun-19 00:27N 30°12' W 093°19'0 0.0
2018-Jun-18 23:57N 30°12' W 093°19'0 0.0
2018-Jun-18 23:27N 30°12' W 093°19'0 0.0
2018-Jun-18 22:57N 30°12' W 093°19'0 0.0
2018-Jun-18 22:30N 30°12' W 093°19'0 0.0
2018-Jun-18 22:00N 30°12' W 093°19'1 1.2
2018-Jun-18 21:30N 30°13' W 093°19'1 2.6
2018-Jun-18 21:00N 30°12' W 093°18'2 4.8
2018-Jun-18 20:30N 30°10' W 093°19'3 6.0
2018-Jun-18 20:00N 30°07' W 093°20'3 5.4
2018-Jun-18 19:30N 30°05' W 093°20'2 4.0
2018-Jun-18 19:00N 30°04' W 093°22'3 5.3
2018-Jun-18 18:30N 30°04' W 093°26'3 5.5
2018-Jun-18 18:00N 30°04' W 093°29'3 5.5
2018-Jun-18 17:30N 30°04' W 093°32'4 5.8
2018-Jun-18 16:47N 30°04' W 093°37'2 6.0
2018-Jun-18 16:30N 30°04' W 093°39'3 6.3
2018-Jun-18 16:00N 30°03' W 093°42'3 5.9
2018-Jun-18 15:30N 30°01' W 093°45'4 6.8
2018-Jun-18 14:59N 29°59' W 093°48'3 6.2
2018-Jun-18 14:30N 29°58' W 093°51'4 7.0
2018-Jun-18 14:00N 29°55' W 093°53'4 7.1
2018-Jun-18 13:30N 29°52' W 093°56'3 6.2
2018-Jun-18 13:00N 29°50' W 093°57'3 5.2
2018-Jun-18 12:31N 29°48' W 093°60'3 5.3
2018-Jun-18 12:00N 29°47' W 094°02'3 5.3
2018-Jun-18 11:30N 29°45' W 094°04'3 5.4
2018-Jun-18 11:00N 29°43' W 094°07'3 5.5
2018-Jun-18 10:30N 29°42' W 094°09'3 5.4
2018-Jun-18 09:59N 29°41' W 094°12'3 5.5
2018-Jun-18 09:30N 29°39' W 094°15'3 5.4
2018-Jun-18 09:00N 29°38' W 094°18'2 4.0
2018-Jun-18 08:30N 29°37' W 094°20'4 4.9
2018-Jun-18 07:45N 29°36' W 094°24'29 3.9
2018-Jun-18 00:15N 29°38' W 094°58'1 5.5
2018-Jun-18 00:00N 29°39' W 094°58'3 6.2
2018-Jun-17 23:30N 29°42' W 094°60'  
Track history (hours):
 
Tides and Currents Weather Stations Pressure Air Temp Water Temp Dewpoint Dewpoint Depression Visibility Wind Speed Wind Dir Waves Ship Positions

Delta Mallard

Owner: Crosby Marine Transportation, Golden Meadow, LA. More information available from US FCC via Universal Licensing System and Coast Guard Vessel Documentation Center.

Last reported at 2018-Jun-25 00:08 UTC. Time now 2018-Jun-25 11:28 UTC.
Position N 29°45' W 095°04'.

Length 16 m; draft 3.5 m.

Type: Towing. MMSI: 367498860.

Date/timePositionNaut miles runAvg speedWind from/ knotsBaromVisibWave heightAir tempDewpointWater temp
2018-Jun-25 00:08N 29°45' W 095°04'1 6.8
2018-Jun-25 00:00N 29°45' W 095°04'3 5.9
2018-Jun-24 23:30N 29°43' W 095°01'3 6.3
2018-Jun-24 23:00N 29°40' W 094°59'3 6.8
2018-Jun-24 22:30N 29°37' W 094°57'4 7.0
2018-Jun-24 22:00N 29°34' W 094°55'3 7.0
2018-Jun-24 21:30N 29°31' W 094°53'5 7.0
2018-Jun-24 20:46N 29°27' W 094°50'2 6.9
2018-Jun-24 20:28N 29°25' W 094°49'3 6.4
2018-Jun-24 20:00N 29°22' W 094°48'3 6.1
2018-Jun-24 19:28N 29°24' W 094°45'26 6.3
2018-Jun-24 15:17N 29°38' W 094°18'2 6.4
2018-Jun-24 14:57N 29°39' W 094°16'3 6.4
2018-Jun-24 14:30N 29°40' W 094°13'3 6.3
2018-Jun-24 14:00N 29°41' W 094°10'3 6.0
2018-Jun-24 13:30N 29°43' W 094°07'3 6.1
2018-Jun-24 13:00N 29°45' W 094°04'3 6.2
2018-Jun-24 12:30N 29°47' W 094°02'3 6.3
2018-Jun-24 12:00N 29°49' W 093°59'3 5.5
2018-Jun-24 11:30N 29°51' W 093°57'3 5.7
2018-Jun-24 11:00N 29°53' W 093°55'3 6.0
2018-Jun-24 10:30N 29°56' W 093°53'3 6.1
2018-Jun-24 10:01N 29°58' W 093°51'3 6.2
2018-Jun-24 09:30N 29°59' W 093°48'2 3.4
2018-Jun-24 09:01N 30°00' W 093°46'0 0.0
2018-Jun-24 08:30N 30°00' W 093°46'2 4.5
2018-Jun-24 08:00N 30°02' W 093°44'3 6.2
2018-Jun-24 07:30N 30°04' W 093°41'3 6.7
2018-Jun-24 07:00N 30°04' W 093°37'3 6.6
2018-Jun-24 06:30N 30°04' W 093°33'3 6.4
2018-Jun-24 05:59N 30°04' W 093°30'3 6.2
2018-Jun-24 05:30N 30°04' W 093°26'3 5.6
2018-Jun-24 05:00N 30°04' W 093°23'2 4.4
2018-Jun-24 04:30N 30°04' W 093°21'3 5.1
2018-Jun-24 04:00N 30°07' W 093°20'3 6.6
2018-Jun-24 03:30N 30°10' W 093°19'3 5.3
2018-Jun-24 03:00N 30°12' W 093°18'1 2.4
2018-Jun-24 02:30N 30°12' W 093°19'0 0.7
2018-Jun-24 01:59N 30°12' W 093°19'0 0.0
2018-Jun-24 01:29N 30°12' W 093°19'0 0.0
2018-Jun-24 00:59N 30°12' W 093°19'0 0.0
2018-Jun-24 00:29N 30°12' W 093°19'0 0.0
2018-Jun-23 23:59N 30°12' W 093°19'0 0.0
2018-Jun-23 23:26N 30°12' W 093°19'0 0.0
2018-Jun-23 22:59N 30°12' W 093°19'0 0.0
2018-Jun-23 22:29N 30°12' W 093°19'0 0.0
2018-Jun-23 21:59N 30°12' W 093°19'0 0.0
2018-Jun-23 21:29N 30°12' W 093°19'0 0.0
2018-Jun-23 20:53N 30°12' W 093°19'0 0.0
2018-Jun-23 20:26N 30°12' W 093°19'0 0.0
2018-Jun-23 19:59N 30°12' W 093°19'0 0.0
2018-Jun-23 19:23N 30°12' W 093°19'0 0.0
2018-Jun-23 18:50N 30°12' W 093°19'0 0.0
2018-Jun-23 18:29N 30°12' W 093°19'0 0.0
2018-Jun-23 17:59N 30°12' W 093°19'0 0.0
2018-Jun-23 17:22N 30°12' W 093°19'0 0.0
2018-Jun-23 16:59N 30°12' W 093°19'0 0.0
2018-Jun-23 16:28N 30°12' W 093°19'0 0.0
2018-Jun-23 15:59N 30°12' W 093°19'0 0.0
2018-Jun-23 15:26N 30°12' W 093°19'0 0.0
2018-Jun-23 14:59N 30°12' W 093°19'0 0.0
2018-Jun-23 14:29N 30°12' W 093°19'0 0.0
2018-Jun-23 13:59N 30°12' W 093°19'0 0.0
2018-Jun-23 13:29N 30°12' W 093°19'0 0.0
2018-Jun-23 12:59N 30°12' W 093°19'0 0.0
2018-Jun-23 12:29N 30°12' W 093°19'0 0.0
2018-Jun-23 11:59N 30°12' W 093°19'0 0.0
2018-Jun-23 11:29N 30°12' W 093°19'0 0.0
2018-Jun-23 10:59N 30°12' W 093°19'0 0.0
2018-Jun-23 10:29N 30°12' W 093°19'0 0.0
2018-Jun-23 09:59N 30°12' W 093°19'0 0.0
2018-Jun-23 09:29N 30°12' W 093°19'0 0.0
2018-Jun-23 08:59N 30°12' W 093°19'0 0.0
2018-Jun-23 08:29N 30°12' W 093°19'0 0.0
2018-Jun-23 07:59N 30°12' W 093°19'0 0.0
2018-Jun-23 07:29N 30°12' W 093°19'0 0.0
2018-Jun-23 06:59N 30°12' W 093°19'0 0.0
2018-Jun-23 06:26N 30°12' W 093°19'0 0.0
2018-Jun-23 05:58N 30°12' W 093°19'0 0.0
2018-Jun-23 05:26N 30°12' W 093°19'0 0.0
2018-Jun-23 04:59N 30°12' W 093°19'0 0.0
2018-Jun-23 04:29N 30°12' W 093°19'0 0.0
2018-Jun-23 03:59N 30°12' W 093°19'0 0.0
2018-Jun-23 03:28N 30°12' W 093°19'0 0.0
2018-Jun-23 02:56N 30°12' W 093°19'0 0.0
2018-Jun-23 02:26N 30°12' W 093°19'0 0.0
2018-Jun-23 01:58N 30°12' W 093°19'0 0.0
2018-Jun-23 01:29N 30°12' W 093°19'0 0.0
2018-Jun-23 00:58N 30°12' W 093°19'0 0.0
2018-Jun-23 00:25N 30°12' W 093°19'0 0.0
2018-Jun-22 23:58N 30°12' W 093°19'0 0.0
2018-Jun-22 23:28N 30°12' W 093°19'0 0.5
2018-Jun-22 23:00N 30°12' W 093°19'1 1.6
2018-Jun-22 22:31N 30°12' W 093°18'1 2.9
2018-Jun-22 22:01N 30°11' W 093°18'3 5.7
2018-Jun-22 21:30N 30°08' W 093°20'3 6.4
2018-Jun-22 21:01N 30°05' W 093°20'3 5.1
2018-Jun-22 20:30N 30°04' W 093°22'3 5.8
2018-Jun-22 20:01N 30°04' W 093°25'3 6.6
2018-Jun-22 19:31N 30°04' W 093°29'3 6.6
2018-Jun-22 19:00N 30°04' W 093°33'3 6.6
2018-Jun-22 18:31N 30°04' W 093°37'4 6.6
2018-Jun-22 17:51N 30°04' W 093°42'2 6.2
2018-Jun-22 17:31N 30°03' W 093°44'3 6.1
2018-Jun-22 17:01N 30°00' W 093°46'3 6.0
2018-Jun-22 16:30N 29°59' W 093°49'3 5.2
2018-Jun-22 16:00N 29°57' W 093°52'3 5.8
2018-Jun-22 15:30N 29°55' W 093°53'3 6.3
2018-Jun-22 15:01N 29°52' W 093°56'3 6.4
2018-Jun-22 14:31N 29°50' W 093°57'3 6.1
2018-Jun-22 14:01N 29°48' W 094°00'3 6.2
2018-Jun-22 13:30N 29°46' W 094°03'3 5.6
2018-Jun-22 13:00N 29°44' W 094°06'3 6.0
2018-Jun-22 12:30N 29°42' W 094°08'3 5.6
2018-Jun-22 12:00N 29°41' W 094°11'3 5.7
2018-Jun-22 11:30N 29°40' W 094°14'3 5.6
2018-Jun-22 11:00N 29°39' W 094°17'3 5.6
2018-Jun-22 10:30N 29°37' W 094°20'3 5.3
2018-Jun-22 09:52N 29°36' W 094°23'2 3.9
2018-Jun-22 09:24N 29°34' W 094°25'0 0.1
2018-Jun-22 08:59N 29°34' W 094°25'0 0.0
2018-Jun-22 08:26N 29°34' W 094°25'0 0.0
2018-Jun-22 08:00N 29°34' W 094°25'2 3.3
2018-Jun-22 07:29N 29°34' W 094°27'4 5.5
2018-Jun-22 06:49N 29°31' W 094°30'3 6.1
2018-Jun-22 06:18N 29°30' W 094°33'2 6.4
2018-Jun-22 05:57N 29°29' W 094°36'3 6.3
2018-Jun-22 05:30N 29°28' W 094°39'3 6.1
2018-Jun-22 04:58N 29°27' W 094°42'2 4.8
2018-Jun-22 04:29N 29°25' W 094°44'3 5.9
2018-Jun-22 03:58N 29°23' W 094°46'2 3.7
2018-Jun-22 03:30N 29°22' W 094°48'4 7.1
2018-Jun-22 03:00N 29°25' W 094°50'4 7.3
2018-Jun-22 02:30N 29°29' W 094°51'4 7.3
2018-Jun-22 02:01N 29°32' W 094°54'3 6.7
2018-Jun-22 01:30N 29°35' W 094°56'3 6.2
2018-Jun-22 01:00N 29°37' W 094°57'4 6.7
2018-Jun-22 00:29N 29°41' W 094°59'3 6.6
2018-Jun-21 23:57N 29°43' W 095°01'3 6.3
2018-Jun-21 23:26N 29°45' W 095°04'4 0.2
2018-Jun-21 00:13N 29°42' W 095°01'1 5.5
2018-Jun-21 00:00N 29°42' W 094°60'3 5.7
2018-Jun-20 23:30N 29°39' W 094°58'3 6.5
2018-Jun-20 23:00N 29°36' W 094°57'14 6.7
2018-Jun-20 20:53N 29°24' W 094°49'2 5.4
2018-Jun-20 20:28N 29°23' W 094°47'2 4.3
2018-Jun-20 19:53N 29°24' W 094°45'23 4.8
2018-Jun-20 15:03N 29°36' W 094°22'3 7.6
2018-Jun-20 14:39N 29°38' W 094°19'1 7.7
2018-Jun-20 14:30N 29°38' W 094°17'4 7.5
2018-Jun-20 14:01N 29°40' W 094°14'4 7.4
2018-Jun-20 13:31N 29°41' W 094°10'4 7.2
2018-Jun-20 13:01N 29°44' W 094°06'4 7.2
2018-Jun-20 12:31N 29°46' W 094°03'4 7.1
2018-Jun-20 12:01N 29°48' W 094°00'3 5.8
2018-Jun-20 11:31N 29°50' W 093°57'4 8.1
2018-Jun-20 11:00N 29°53' W 093°55'4 8.4
2018-Jun-20 10:31N 29°57' W 093°52'3 6.5
2018-Jun-20 10:01N 29°59' W 093°49'4 7.7
2018-Jun-20 09:31N 30°01' W 093°46'3 6.6
2018-Jun-20 09:01N 30°03' W 093°43'3 6.8
2018-Jun-20 08:30N 30°04' W 093°39'3 6.4
2018-Jun-20 07:58N 30°04' W 093°35'3 6.3
2018-Jun-20 07:29N 30°04' W 093°32'3 5.7
2018-Jun-20 07:00N 30°04' W 093°28'3 5.9
2018-Jun-20 06:31N 30°04' W 093°25'3 6.1
2018-Jun-20 06:00N 30°04' W 093°21'2 3.8
2018-Jun-20 05:30N 30°05' W 093°20'3 5.2
2018-Jun-20 05:00N 30°08' W 093°20'3 6.6
2018-Jun-20 04:31N 30°11' W 093°19'2 3.8
2018-Jun-20 04:01N 30°13' W 093°18'1 1.9
2018-Jun-20 03:31N 30°12' W 093°19'0 0.2
2018-Jun-20 03:00N 30°12' W 093°19'0 0.0
2018-Jun-20 02:30N 30°12' W 093°19'0 0.0
2018-Jun-20 02:00N 30°12' W 093°19'0 0.0
2018-Jun-20 01:27N 30°12' W 093°19'0 0.0
2018-Jun-20 01:00N 30°12' W 093°19'0 0.0
2018-Jun-20 00:27N 30°12' W 093°19'0 0.0
2018-Jun-20 00:00N 30°12' W 093°19'0 0.0
2018-Jun-19 23:30N 30°12' W 093°19'0 0.0
2018-Jun-19 23:00N 30°12' W 093°19'0 0.0
2018-Jun-19 22:30N 30°12' W 093°19'0 0.0
2018-Jun-19 22:00N 30°12' W 093°19'0 0.0
2018-Jun-19 21:30N 30°12' W 093°19'0 0.0
2018-Jun-19 21:00N 30°12' W 093°19'0 0.0
2018-Jun-19 20:30N 30°12' W 093°19'0 0.0
2018-Jun-19 20:00N 30°12' W 093°19'0 0.0
2018-Jun-19 19:27N 30°12' W 093°19'0 0.0
2018-Jun-19 19:00N 30°12' W 093°19'0 0.0
2018-Jun-19 18:27N 30°12' W 093°19'0 0.0
2018-Jun-19 18:00N 30°12' W 093°19'0 0.0
2018-Jun-19 17:30N 30°12' W 093°19'0 0.0
2018-Jun-19 17:00N 30°12' W 093°19'0 0.0
2018-Jun-19 16:30N 30°12' W 093°19'0 0.0
2018-Jun-19 16:00N 30°12' W 093°19'0 0.0
2018-Jun-19 15:30N 30°12' W 093°19'0 0.0
2018-Jun-19 15:00N 30°12' W 093°19'0 0.0
2018-Jun-19 14:30N 30°12' W 093°19'0 0.0
2018-Jun-19 14:00N 30°12' W 093°19'0 0.0
2018-Jun-19 13:30N 30°12' W 093°19'0 0.0
2018-Jun-19 13:00N 30°12' W 093°19'0 0.0
2018-Jun-19 12:24N 30°12' W 093°19'0 0.0
2018-Jun-19 12:00N 30°12' W 093°19'0 0.0
2018-Jun-19 11:30N 30°12' W 093°19'0 0.0
2018-Jun-19 10:57N 30°12' W 093°19'0 0.0
2018-Jun-19 10:27N 30°12' W 093°19'0 0.0
2018-Jun-19 10:00N 30°12' W 093°19'0 0.0
2018-Jun-19 09:30N 30°12' W 093°19'0 0.0
2018-Jun-19 09:00N 30°12' W 093°19'0 0.0
2018-Jun-19 08:30N 30°12' W 093°19'0 0.0
2018-Jun-19 07:54N 30°12' W 093°19'0 0.0
2018-Jun-19 07:24N 30°12' W 093°19'0 0.0
2018-Jun-19 06:57N 30°12' W 093°19'0 0.0
2018-Jun-19 06:27N 30°12' W 093°19'0 0.0
2018-Jun-19 06:00N 30°12' W 093°19'0 0.0
2018-Jun-19 05:30N 30°12' W 093°19'0 0.0
2018-Jun-19 05:00N 30°12' W 093°19'0 0.0
2018-Jun-19 04:27N 30°12' W 093°19'0 0.0
2018-Jun-19 04:00N 30°12' W 093°19'0 0.0
2018-Jun-19 03:30N 30°12' W 093°19'0 0.0
2018-Jun-19 03:00N 30°12' W 093°19'0 0.0
2018-Jun-19 02:27N 30°12' W 093°19'0 0.0
2018-Jun-19 02:00N 30°12' W 093°19'0 0.0
2018-Jun-19 01:30N 30°12' W 093°19'0 0.0
2018-Jun-19 01:00N 30°12' W 093°19'0 0.0
2018-Jun-19 00:27N 30°12' W 093°19'0 0.0
2018-Jun-18 23:57N 30°12' W 093°19'0 0.0
2018-Jun-18 23:27N 30°12' W 093°19'0 0.0
2018-Jun-18 22:57N 30°12' W 093°19'0 0.0
2018-Jun-18 22:30N 30°12' W 093°19'0 0.0
2018-Jun-18 22:00N 30°12' W 093°19'1 1.2
2018-Jun-18 21:30N 30°13' W 093°19'1 2.6
2018-Jun-18 21:00N 30°12' W 093°18'2 4.8
2018-Jun-18 20:30N 30°10' W 093°19'3 6.0
2018-Jun-18 20:00N 30°07' W 093°20'3 5.4
2018-Jun-18 19:30N 30°05' W 093°20'2 4.0
2018-Jun-18 19:00N 30°04' W 093°22'3 5.3
2018-Jun-18 18:30N 30°04' W 093°26'3 5.5
2018-Jun-18 18:00N 30°04' W 093°29'3 5.5
2018-Jun-18 17:30N 30°04' W 093°32'4 5.8
2018-Jun-18 16:47N 30°04' W 093°37'2 6.0
2018-Jun-18 16:30N 30°04' W 093°39'3 6.3
2018-Jun-18 16:00N 30°03' W 093°42'3 5.9
2018-Jun-18 15:30N 30°01' W 093°45'4 6.8
2018-Jun-18 14:59N 29°59' W 093°48'3 6.2
2018-Jun-18 14:30N 29°58' W 093°51'4 7.0
2018-Jun-18 14:00N 29°55' W 093°53'4 7.1
2018-Jun-18 13:30N 29°52' W 093°56'3 6.2
2018-Jun-18 13:00N 29°50' W 093°57'3 5.2
2018-Jun-18 12:31N 29°48' W 093°60'3 5.3
2018-Jun-18 12:00N 29°47' W 094°02'3 5.3
2018-Jun-18 11:30N 29°45' W 094°04'3 5.4
2018-Jun-18 11:00N 29°43' W 094°07'3 5.5
2018-Jun-18 10:30N 29°42' W 094°09'3 5.4
2018-Jun-18 09:59N 29°41' W 094°12'3 5.5
2018-Jun-18 09:30N 29°39' W 094°15'3 5.4
2018-Jun-18 09:00N 29°38' W 094°18'2 4.0
2018-Jun-18 08:30N 29°37' W 094°20'4 4.9
2018-Jun-18 07:45N 29°36' W 094°24'29 3.9
2018-Jun-18 00:15N 29°38' W 094°58'1 5.5
2018-Jun-18 00:00N 29°39' W 094°58'3 6.2
2018-Jun-17 23:30N 29°42' W 094°60'  

Dump ship's entire track history